sensor_id;sensor_type;location;lat;lon;timestamp;pressure;altitude;pressure_sealevel;temperature;humidity
25430;BME280;13360;48.152;-1.788;2022-11-20T00:01:59;101755.22;;;9.89;100.00
25430;BME280;13360;48.152;-1.788;2022-11-20T00:04:24;101758.53;;;9.91;100.00
25430;BME280;13360;48.152;-1.788;2022-11-20T00:06:50;101754.41;;;9.94;100.00
25430;BME280;13360;48.152;-1.788;2022-11-20T00:09:15;101758.00;;;9.94;100.00
25430;BME280;13360;48.152;-1.788;2022-11-20T00:11:40;101767.66;;;9.97;100.00
25430;BME280;13360;48.152;-1.788;2022-11-20T00:14:06;101776.50;;;9.99;100.00
25430;BME280;13360;48.152;-1.788;2022-11-20T00:16:32;101774.06;;;10.02;100.00
25430;BME280;13360;48.152;-1.788;2022-11-20T00:18:57;101779.31;;;10.04;100.00
25430;BME280;13360;48.152;-1.788;2022-11-20T00:21:25;101779.88;;;10.06;100.00
25430;BME280;13360;48.152;-1.788;2022-11-20T00:23:53;101785.97;;;10.08;100.00
25430;BME280;13360;48.152;-1.788;2022-11-20T00:26:20;101793.69;;;10.11;100.00
25430;BME280;13360;48.152;-1.788;2022-11-20T00:28:51;101790.94;;;10.11;100.00
25430;BME280;13360;48.152;-1.788;2022-11-20T00:31:16;101806.41;;;10.12;100.00
25430;BME280;13360;48.152;-1.788;2022-11-20T00:33:43;101816.34;;;10.13;100.00
25430;BME280;13360;48.152;-1.788;2022-11-20T00:36:17;101830.44;;;10.17;100.00
25430;BME280;13360;48.152;-1.788;2022-11-20T00:38:43;101836.78;;;10.12;100.00
25430;BME280;13360;48.152;-1.788;2022-11-20T00:41:11;101841.72;;;10.10;100.00
25430;BME280;13360;48.152;-1.788;2022-11-20T00:43:37;101850.31;;;10.14;100.00
25430;BME280;13360;48.152;-1.788;2022-11-20T00:46:06;101854.44;;;10.16;100.00
25430;BME280;13360;48.152;-1.788;2022-11-20T00:48:32;101864.38;;;10.12;100.00
25430;BME280;13360;48.152;-1.788;2022-11-20T00:50:58;101869.91;;;10.12;100.00
25430;BME280;13360;48.152;-1.788;2022-11-20T00:53:24;101882.06;;;10.16;100.00
25430;BME280;13360;48.152;-1.788;2022-11-20T00:56:00;101877.66;;;10.20;100.00
25430;BME280;13360;48.152;-1.788;2022-11-20T00:58:37;101886.31;;;10.24;100.00
25430;BME280;13360;48.152;-1.788;2022-11-20T01:03:31;101891.81;;;10.24;100.00
25430;BME280;13360;48.152;-1.788;2022-11-20T01:06:09;101888.72;;;10.20;100.00
25430;BME280;13360;48.152;-1.788;2022-11-20T01:08:35;101892.09;;;10.22;100.00
25430;BME280;13360;48.152;-1.788;2022-11-20T01:11:02;101899.00;;;10.25;100.00
25430;BME280;13360;48.152;-1.788;2022-11-20T01:13:29;101903.44;;;10.26;100.00
25430;BME280;13360;48.152;-1.788;2022-11-20T01:18:30;101903.72;;;10.29;100.00
25430;BME280;13360;48.152;-1.788;2022-11-20T01:20:55;101904.28;;;10.31;100.00
25430;BME280;13360;48.152;-1.788;2022-11-20T01:23:20;101910.34;;;10.28;100.00
25430;BME280;13360;48.152;-1.788;2022-11-20T01:25:46;101913.13;;;10.28;100.00
25430;BME280;13360;48.152;-1.788;2022-11-20T01:28:11;101916.41;;;10.25;100.00
25430;BME280;13360;48.152;-1.788;2022-11-20T01:30:36;101920.81;;;10.21;100.00
25430;BME280;13360;48.152;-1.788;2022-11-20T01:33:01;101919.88;;;10.16;100.00
25430;BME280;13360;48.152;-1.788;2022-11-20T01:35:27;101938.38;;;10.15;100.00
25430;BME280;13360;48.152;-1.788;2022-11-20T01:37:52;101947.47;;;10.11;100.00
25430;BME280;13360;48.152;-1.788;2022-11-20T01:40:18;101956.88;;;10.15;100.00
25430;BME280;13360;48.152;-1.788;2022-11-20T01:42:53;101963.25;;;10.20;100.00
25430;BME280;13360;48.152;-1.788;2022-11-20T01:46:12;101972.75;;;10.24;100.00
25430;BME280;13360;48.152;-1.788;2022-11-20T01:51:23;101986.53;;;10.24;100.00
25430;BME280;13360;48.152;-1.788;2022-11-20T01:53:53;101987.91;;;10.22;100.00
25430;BME280;13360;48.152;-1.788;2022-11-20T01:56:19;101997.59;;;10.24;100.00
25430;BME280;13360;48.152;-1.788;2022-11-20T01:58:50;102008.94;;;10.28;100.00
25430;BME280;13360;48.152;-1.788;2022-11-20T02:01:17;102008.38;;;10.26;100.00
25430;BME280;13360;48.152;-1.788;2022-11-20T02:03:43;101998.59;;;10.18;100.00
25430;BME280;13360;48.152;-1.788;2022-11-20T02:06:44;102022.97;;;10.21;100.00
25430;BME280;13360;48.152;-1.788;2022-11-20T02:09:10;102021.03;;;10.22;100.00
25430;BME280;13360;48.152;-1.788;2022-11-20T02:11:36;102028.22;;;10.23;100.00
25430;BME280;13360;48.152;-1.788;2022-11-20T02:14:02;102030.63;;;10.19;100.00
25430;BME280;13360;48.152;-1.788;2022-11-20T02:16:30;102029.50;;;10.15;100.00
25430;BME280;13360;48.152;-1.788;2022-11-20T02:18:59;102041.59;;;10.09;100.00
25430;BME280;13360;48.152;-1.788;2022-11-20T02:21:35;102049.63;;;10.11;100.00
25430;BME280;13360;48.152;-1.788;2022-11-20T02:24:12;102059.13;;;9.98;100.00
25430;BME280;13360;48.152;-1.788;2022-11-20T02:26:52;102078.81;;;10.01;100.00
25430;BME280;13360;48.152;-1.788;2022-11-20T02:29:45;102092.94;;;10.10;100.00
25430;BME280;13360;48.152;-1.788;2022-11-20T02:32:29;102091.38;;;9.92;100.00
25430;BME280;13360;48.152;-1.788;2022-11-20T02:34:55;102103.81;;;9.95;100.00
25430;BME280;13360;48.152;-1.788;2022-11-20T02:37:22;102134.31;;;10.05;100.00
25430;BME280;13360;48.152;-1.788;2022-11-20T02:39:50;102152.03;;;10.09;100.00
25430;BME280;13360;48.152;-1.788;2022-11-20T02:42:17;102169.47;;;10.15;100.00
25430;BME280;13360;48.152;-1.788;2022-11-20T02:44:42;102188.66;;;10.21;100.00
25430;BME280;13360;48.152;-1.788;2022-11-20T02:47:08;102196.69;;;10.23;100.00
25430;BME280;13360;48.152;-1.788;2022-11-20T02:49:33;102212.03;;;10.19;100.00
25430;BME280;13360;48.152;-1.788;2022-11-20T02:51:59;102227.78;;;10.18;100.00
25430;BME280;13360;48.152;-1.788;2022-11-20T02:54:25;102244.28;;;10.13;100.00
25430;BME280;13360;48.152;-1.788;2022-11-20T02:56:50;102263.41;;;10.20;100.00
25430;BME280;13360;48.152;-1.788;2022-11-20T02:59:16;102278.56;;;10.17;100.00
25430;BME280;13360;48.152;-1.788;2022-11-20T03:01:41;102290.19;;;10.19;100.00
25430;BME280;13360;48.152;-1.788;2022-11-20T03:04:07;102295.13;;;10.17;100.00
25430;BME280;13360;48.152;-1.788;2022-11-20T03:06:32;102315.50;;;10.11;100.00
25430;BME280;13360;48.152;-1.788;2022-11-20T03:08:58;102313.94;;;9.98;100.00
25430;BME280;13360;48.152;-1.788;2022-11-20T03:11:23;102338.59;;;10.05;100.00
25430;BME280;13360;48.152;-1.788;2022-11-20T03:13:48;102350.22;;;10.07;100.00
25430;BME280;13360;48.152;-1.788;2022-11-20T03:16:19;102370.06;;;10.04;100.00
25430;BME280;13360;48.152;-1.788;2022-11-20T03:18:45;102362.19;;;9.96;100.00
25430;BME280;13360;48.152;-1.788;2022-11-20T03:21:12;102377.53;;;9.87;100.00
25430;BME280;13360;48.152;-1.788;2022-11-20T03:23:38;102394.22;;;9.97;100.00
25430;BME280;13360;48.152;-1.788;2022-11-20T03:28:37;102420.16;;;9.96;100.00
25430;BME280;13360;48.152;-1.788;2022-11-20T03:31:10;102424.44;;;10.03;100.00
25430;BME280;13360;48.152;-1.788;2022-11-20T03:33:37;102434.16;;;10.06;100.00
25430;BME280;13360;48.152;-1.788;2022-11-20T03:36:11;102430.88;;;10.09;100.00
25430;BME280;13360;48.152;-1.788;2022-11-20T03:38:37;102438.66;;;10.12;100.00
25430;BME280;13360;48.152;-1.788;2022-11-20T03:41:06;102453.13;;;10.19;100.00
25430;BME280;13360;48.152;-1.788;2022-11-20T03:43:32;102458.88;;;10.18;100.00
25430;BME280;13360;48.152;-1.788;2022-11-20T03:45:58;102476.28;;;10.18;100.00
25430;BME280;13360;48.152;-1.788;2022-11-20T03:48:23;102495.84;;;10.28;100.00
25430;BME280;13360;48.152;-1.788;2022-11-20T03:50:49;102493.06;;;10.28;100.00
25430;BME280;13360;48.152;-1.788;2022-11-20T03:53:15;102488.13;;;10.30;100.00
25430;BME280;13360;48.152;-1.788;2022-11-20T03:55:41;102501.75;;;10.37;100.00
25430;BME280;13360;48.152;-1.788;2022-11-20T03:58:06;102504.84;;;10.41;100.00
25430;BME280;13360;48.152;-1.788;2022-11-20T04:00:32;102506.44;;;10.36;100.00
25430;BME280;13360;48.152;-1.788;2022-11-20T04:02:58;102514.84;;;10.42;100.00
25430;BME280;13360;48.152;-1.788;2022-11-20T04:05:24;102517.00;;;10.39;100.00
25430;BME280;13360;48.152;-1.788;2022-11-20T04:07:49;102518.66;;;10.41;100.00
25430;BME280;13360;48.152;-1.788;2022-11-20T04:10:15;102527.97;;;10.34;100.00
25430;BME280;13360;48.152;-1.788;2022-11-20T04:12:40;102544.88;;;10.38;100.00
25430;BME280;13360;48.152;-1.788;2022-11-20T04:15:06;102548.72;;;10.37;100.00
25430;BME280;13360;48.152;-1.788;2022-11-20T04:17:31;102552.50;;;10.31;100.00
25430;BME280;13360;48.152;-1.788;2022-11-20T04:19:56;102568.63;;;10.39;100.00
25430;BME280;13360;48.152;-1.788;2022-11-20T04:22:22;102589.75;;;10.45;100.00
25430;BME280;13360;48.152;-1.788;2022-11-20T04:24:47;102596.69;;;10.48;100.00
25430;BME280;13360;48.152;-1.788;2022-11-20T04:27:12;102601.41;;;10.47;100.00
25430;BME280;13360;48.152;-1.788;2022-11-20T04:29:38;102615.03;;;10.54;100.00
25430;BME280;13360;48.152;-1.788;2022-11-20T04:32:03;102605.56;;;10.50;100.00
25430;BME280;13360;48.152;-1.788;2022-11-20T04:34:28;102614.75;;;10.38;100.00
25430;BME280;13360;48.152;-1.788;2022-11-20T04:36:54;102629.41;;;10.39;100.00
25430;BME280;13360;48.152;-1.788;2022-11-20T04:39:19;102646.59;;;10.41;100.00
25430;BME280;13360;48.152;-1.788;2022-11-20T04:41:44;102649.25;;;10.36;100.00
25430;BME280;13360;48.152;-1.788;2022-11-20T04:44:10;102665.19;;;10.46;100.00
25430;BME280;13360;48.152;-1.788;2022-11-20T04:46:41;102687.38;;;10.51;100.00
25430;BME280;13360;48.152;-1.788;2022-11-20T04:49:06;102697.94;;;10.54;100.00
25430;BME280;13360;48.152;-1.788;2022-11-20T04:51:33;102705.72;;;10.57;100.00
25430;BME280;13360;48.152;-1.788;2022-11-20T04:53:59;102717.94;;;10.61;100.00
25430;BME280;13360;48.152;-1.788;2022-11-20T04:56:24;102722.28;;;10.57;100.00
25430;BME280;13360;48.152;-1.788;2022-11-20T04:58:50;102744.59;;;10.67;100.00
25430;BME280;13360;48.152;-1.788;2022-11-20T05:01:21;102736.22;;;10.62;100.00
25430;BME280;13360;48.152;-1.788;2022-11-20T05:03:47;102742.94;;;10.66;100.00
25430;BME280;13360;48.152;-1.788;2022-11-20T05:06:16;102745.56;;;10.61;100.00
25430;BME280;13360;48.152;-1.788;2022-11-20T05:08:42;102768.91;;;10.65;100.00
25430;BME280;13360;48.152;-1.788;2022-11-20T05:11:11;102773.22;;;10.61;100.00
25430;BME280;13360;48.152;-1.788;2022-11-20T05:13:37;102780.78;;;10.65;100.00
25430;BME280;13360;48.152;-1.788;2022-11-20T05:16:09;102776.94;;;10.66;100.00
25430;BME280;13360;48.152;-1.788;2022-11-20T05:18:35;102791.25;;;10.63;100.00
25430;BME280;13360;48.152;-1.788;2022-11-20T05:21:01;102803.84;;;10.59;100.00
25430;BME280;13360;48.152;-1.788;2022-11-20T05:23:27;102815.28;;;10.63;100.00
25430;BME280;13360;48.152;-1.788;2022-11-20T05:25:57;102835.06;;;10.72;100.00
25430;BME280;13360;48.152;-1.788;2022-11-20T05:28:23;102834.22;;;10.71;100.00
25430;BME280;13360;48.152;-1.788;2022-11-20T05:30:50;102850.31;;;10.74;100.00
25430;BME280;13360;48.152;-1.788;2022-11-20T05:33:15;102852.31;;;10.79;100.00
25430;BME280;13360;48.152;-1.788;2022-11-20T05:35:41;102834.81;;;10.73;100.00
25430;BME280;13360;48.152;-1.788;2022-11-20T05:38:06;102857.34;;;10.65;100.00
25430;BME280;13360;48.152;-1.788;2022-11-20T05:40:32;102881.47;;;10.69;100.00
25430;BME280;13360;48.152;-1.788;2022-11-20T05:42:57;102911.13;;;10.74;100.00
25430;BME280;13360;48.152;-1.788;2022-11-20T05:45:22;102920.59;;;10.78;100.00
25430;BME280;13360;48.152;-1.788;2022-11-20T05:47:48;102932.84;;;10.82;100.00
25430;BME280;13360;48.152;-1.788;2022-11-20T05:50:14;102956.19;;;10.86;100.00
25430;BME280;13360;48.152;-1.788;2022-11-20T05:52:39;102986.00;;;10.84;100.00
25430;BME280;13360;48.152;-1.788;2022-11-20T05:55:05;103058.72;;;10.85;100.00
25430;BME280;13360;48.152;-1.788;2022-11-20T05:57:31;103083.59;;;10.85;100.00
25430;BME280;13360;48.152;-1.788;2022-11-20T05:59:56;103084.06;;;10.82;100.00
25430;BME280;13360;48.152;-1.788;2022-11-20T06:02:21;103092.97;;;10.84;100.00
25430;BME280;13360;48.152;-1.788;2022-11-20T06:04:47;103112.44;;;10.89;100.00
25430;BME280;13360;48.152;-1.788;2022-11-20T06:07:12;103117.25;;;10.93;100.00
25430;BME280;13360;48.152;-1.788;2022-11-20T06:09:37;103131.44;;;10.97;100.00
25430;BME280;13360;48.152;-1.788;2022-11-20T06:12:03;103135.38;;;11.01;100.00
25430;BME280;13360;48.152;-1.788;2022-11-20T06:14:28;103132.16;;;11.04;100.00
25430;BME280;13360;48.152;-1.788;2022-11-20T06:16:54;103131.91;;;11.06;100.00
25430;BME280;13360;48.152;-1.788;2022-11-20T06:19:21;103125.31;;;11.07;100.00
25430;BME280;13360;48.152;-1.788;2022-11-20T06:21:48;103124.47;;;11.06;100.00
25430;BME280;13360;48.152;-1.788;2022-11-20T06:24:14;103132.50;;;11.08;100.00
25430;BME280;13360;48.152;-1.788;2022-11-20T06:26:39;103121.94;;;11.05;100.00
25430;BME280;13360;48.152;-1.788;2022-11-20T06:29:05;103122.66;;;11.00;100.00
25430;BME280;13360;48.152;-1.788;2022-11-20T06:31:30;103132.63;;;11.01;100.00
25430;BME280;13360;48.152;-1.788;2022-11-20T06:34:00;103159.44;;;11.00;100.00
25430;BME280;13360;48.152;-1.788;2022-11-20T06:36:25;103164.97;;;11.00;100.00
25430;BME280;13360;48.152;-1.788;2022-11-20T06:38:51;103172.44;;;11.00;100.00
25430;BME280;13360;48.152;-1.788;2022-11-20T06:41:19;103158.34;;;11.02;100.00
25430;BME280;13360;48.152;-1.788;2022-11-20T06:43:45;103154.28;;;11.04;100.00
25430;BME280;13360;48.152;-1.788;2022-11-20T06:46:11;103148.50;;;11.06;100.00
25430;BME280;13360;48.152;-1.788;2022-11-20T06:48:37;103119.19;;;11.05;100.00
25430;BME280;13360;48.152;-1.788;2022-11-20T06:51:04;103120.25;;;11.04;100.00
25430;BME280;13360;48.152;-1.788;2022-11-20T06:53:30;103122.16;;;11.03;100.00
25430;BME280;13360;48.152;-1.788;2022-11-20T06:55:56;103124.91;;;11.03;100.00
25430;BME280;13360;48.152;-1.788;2022-11-20T06:58:22;103132.16;;;11.04;100.00
25430;BME280;13360;48.152;-1.788;2022-11-20T07:00:47;103140.22;;;11.06;100.00
25430;BME280;13360;48.152;-1.788;2022-11-20T07:03:13;103149.34;;;11.06;100.00
25430;BME280;13360;48.152;-1.788;2022-11-20T07:05:38;103142.50;;;11.09;100.00
25430;BME280;13360;48.152;-1.788;2022-11-20T07:08:04;103149.72;;;11.10;100.00
25430;BME280;13360;48.152;-1.788;2022-11-20T07:10:30;103141.41;;;11.10;100.00
25430;BME280;13360;48.152;-1.788;2022-11-20T07:12:55;103139.25;;;11.12;100.00
25430;BME280;13360;48.152;-1.788;2022-11-20T07:15:22;103134.53;;;11.12;100.00
25430;BME280;13360;48.152;-1.788;2022-11-20T07:17:48;103135.38;;;11.13;100.00
25430;BME280;13360;48.152;-1.788;2022-11-20T07:20:14;103126.00;;;11.14;100.00
25430;BME280;13360;48.152;-1.788;2022-11-20T07:22:39;103127.69;;;11.15;100.00
25430;BME280;13360;48.152;-1.788;2022-11-20T07:25:06;103120.72;;;11.12;100.00
25430;BME280;13360;48.152;-1.788;2022-11-20T07:27:31;103124.56;;;11.11;100.00
25430;BME280;13360;48.152;-1.788;2022-11-20T07:29:57;103128.19;;;11.12;100.00
25430;BME280;13360;48.152;-1.788;2022-11-20T07:32:23;103120.72;;;11.12;100.00
25430;BME280;13360;48.152;-1.788;2022-11-20T07:34:49;103121.81;;;11.11;100.00
25430;BME280;13360;48.152;-1.788;2022-11-20T07:37:15;103106.88;;;11.12;100.00
25430;BME280;13360;48.152;-1.788;2022-11-20T07:39:40;103093.06;;;11.12;100.00
25430;BME280;13360;48.152;-1.788;2022-11-20T07:42:06;103093.31;;;11.11;100.00
25430;BME280;13360;48.152;-1.788;2022-11-20T07:44:32;103085.25;;;11.09;100.00
25430;BME280;13360;48.152;-1.788;2022-11-20T07:46:58;103089.94;;;11.09;100.00
25430;BME280;13360;48.152;-1.788;2022-11-20T07:49:23;103080.56;;;11.10;100.00
25430;BME280;13360;48.152;-1.788;2022-11-20T07:51:51;103068.66;;;11.09;100.00
25430;BME280;13360;48.152;-1.788;2022-11-20T07:54:21;103066.97;;;11.08;100.00
25430;BME280;13360;48.152;-1.788;2022-11-20T07:56:48;103060.34;;;11.09;100.00
25430;BME280;13360;48.152;-1.788;2022-11-20T07:59:14;103052.66;;;11.11;100.00
25430;BME280;13360;48.152;-1.788;2022-11-20T08:01:40;103050.72;;;11.12;100.00
25430;BME280;13360;48.152;-1.788;2022-11-20T08:04:06;103045.19;;;11.12;100.00
25430;BME280;13360;48.152;-1.788;2022-11-20T08:06:31;103039.91;;;11.10;100.00
25430;BME280;13360;48.152;-1.788;2022-11-20T08:08:57;103033.28;;;11.11;100.00
25430;BME280;13360;48.152;-1.788;2022-11-20T08:11:22;103021.38;;;11.11;100.00
25430;BME280;13360;48.152;-1.788;2022-11-20T08:14:06;103037.50;;;11.14;100.00
25430;BME280;13360;48.152;-1.788;2022-11-20T08:16:38;103033.63;;;11.15;100.00
25430;BME280;13360;48.152;-1.788;2022-11-20T08:19:04;103036.50;;;11.20;100.00
25430;BME280;13360;48.152;-1.788;2022-11-20T08:21:30;103034.69;;;11.25;100.00
25430;BME280;13360;48.152;-1.788;2022-11-20T08:23:57;103038.41;;;11.31;100.00
25430;BME280;13360;48.152;-1.788;2022-11-20T08:26:23;103035.13;;;11.34;100.00
25430;BME280;13360;48.152;-1.788;2022-11-20T08:28:48;103034.06;;;11.35;100.00
25430;BME280;13360;48.152;-1.788;2022-11-20T08:31:14;103040.75;;;11.39;100.00
25430;BME280;13360;48.152;-1.788;2022-11-20T08:33:39;103049.16;;;11.44;100.00
25430;BME280;13360;48.152;-1.788;2022-11-20T08:36:05;103047.09;;;11.51;100.00
25430;BME280;13360;48.152;-1.788;2022-11-20T08:38:31;103046.28;;;11.51;100.00
25430;BME280;13360;48.152;-1.788;2022-11-20T08:40:58;103054.91;;;11.54;100.00
25430;BME280;13360;48.152;-1.788;2022-11-20T08:43:42;103076.06;;;11.60;100.00
25430;BME280;13360;48.152;-1.788;2022-11-20T08:46:07;103083.78;;;11.58;100.00
25430;BME280;13360;48.152;-1.788;2022-11-20T08:48:32;103090.50;;;11.63;100.00
25430;BME280;13360;48.152;-1.788;2022-11-20T08:50:58;103113.94;;;11.72;100.00
25430;BME280;13360;48.152;-1.788;2022-11-20T08:53:24;103125.94;;;11.77;100.00
25430;BME280;13360;48.152;-1.788;2022-11-20T08:55:50;103121.25;;;11.78;100.00
25430;BME280;13360;48.152;-1.788;2022-11-20T08:58:15;103132.44;;;11.83;100.00
25430;BME280;13360;48.152;-1.788;2022-11-20T09:00:40;103135.22;;;11.83;100.00
25430;BME280;13360;48.152;-1.788;2022-11-20T09:03:06;103146.31;;;11.83;100.00
25430;BME280;13360;48.152;-1.788;2022-11-20T09:05:32;103162.78;;;11.89;100.00
25430;BME280;13360;48.152;-1.788;2022-11-20T09:07:58;103191.16;;;11.97;100.00
25430;BME280;13360;48.152;-1.788;2022-11-20T09:10:24;103207.63;;;12.03;100.00
25430;BME280;13360;48.152;-1.788;2022-11-20T09:12:51;103243.38;;;12.16;100.00
25430;BME280;13360;48.152;-1.788;2022-11-20T09:15:17;103256.31;;;12.28;100.00
25430;BME280;13360;48.152;-1.788;2022-11-20T09:17:52;103259.31;;;12.38;100.00
25430;BME280;13360;48.152;-1.788;2022-11-20T09:20:18;103255.53;;;12.44;100.00
25430;BME280;13360;48.152;-1.788;2022-11-20T09:22:44;103236.97;;;12.44;100.00
25430;BME280;13360;48.152;-1.788;2022-11-20T09:25:09;103247.41;;;12.54;100.00
25430;BME280;13360;48.152;-1.788;2022-11-20T09:27:34;103246.66;;;12.59;100.00
25430;BME280;13360;48.152;-1.788;2022-11-20T09:30:00;103230.28;;;12.57;100.00
25430;BME280;13360;48.152;-1.788;2022-11-20T09:32:26;103230.28;;;12.57;100.00
25430;BME280;13360;48.152;-1.788;2022-11-20T09:34:51;103227.94;;;12.66;100.00
25430;BME280;13360;48.152;-1.788;2022-11-20T09:37:16;103234.50;;;12.76;100.00
25430;BME280;13360;48.152;-1.788;2022-11-20T09:39:42;103198.00;;;12.68;100.00
25430;BME280;13360;48.152;-1.788;2022-11-20T09:42:26;103188.59;;;12.69;100.00
25430;BME280;13360;48.152;-1.788;2022-11-20T09:45:09;103205.09;;;12.75;100.00
25430;BME280;13360;48.152;-1.788;2022-11-20T09:47:57;103168.47;;;12.73;100.00
25430;BME280;13360;48.152;-1.788;2022-11-20T09:50:43;103176.53;;;12.92;100.00
25430;BME280;13360;48.152;-1.788;2022-11-20T09:56:16;103183.63;;;13.04;100.00
25430;BME280;13360;48.152;-1.788;2022-11-20T09:58:45;103166.72;;;13.06;100.00
25430;BME280;13360;48.152;-1.788;2022-11-20T10:01:15;103138.13;;;13.05;100.00
25430;BME280;13360;48.152;-1.788;2022-11-20T10:06:15;103112.13;;;13.11;100.00
25430;BME280;13360;48.152;-1.788;2022-11-20T10:08:47;103086.25;;;13.06;100.00
25430;BME280;13360;48.152;-1.788;2022-11-20T10:14:12;103049.94;;;13.07;100.00
25430;BME280;13360;48.152;-1.788;2022-11-20T10:22:07;103039.25;;;13.16;100.00
25430;BME280;13360;48.152;-1.788;2022-11-20T10:24:42;103024.88;;;13.19;100.00
25430;BME280;13360;48.152;-1.788;2022-11-20T10:30:18;103028.09;;;13.33;100.00
25430;BME280;13360;48.152;-1.788;2022-11-20T10:32:54;103022.28;;;13.34;100.00
25430;BME280;13360;48.152;-1.788;2022-11-20T10:35:28;103042.34;;;13.41;100.00
25430;BME280;13360;48.152;-1.788;2022-11-20T10:38:04;103047.94;;;13.47;100.00
25430;BME280;13360;48.152;-1.788;2022-11-20T10:40:34;103031.34;;;13.52;100.00
25430;BME280;13360;48.152;-1.788;2022-11-20T10:48:22;102978.81;;;13.45;100.00
25430;BME280;13360;48.152;-1.788;2022-11-20T10:56:22;102957.66;;;13.39;100.00
25430;BME280;13360;48.152;-1.788;2022-11-20T10:59:12;102962.69;;;13.42;100.00
25430;BME280;13360;48.152;-1.788;2022-11-20T11:01:45;102980.75;;;13.45;100.00
25430;BME280;13360;48.152;-1.788;2022-11-20T11:04:34;102983.03;;;13.53;100.00
25430;BME280;13360;48.152;-1.788;2022-11-20T11:07:26;102978.66;;;13.57;100.00
25430;BME280;13360;48.152;-1.788;2022-11-20T11:09:54;102957.16;;;13.47;100.00
25430;BME280;13360;48.152;-1.788;2022-11-20T11:12:28;102958.66;;;13.55;100.00
25430;BME280;13360;48.152;-1.788;2022-11-20T11:14:56;102960.94;;;13.63;100.00
25430;BME280;13360;48.152;-1.788;2022-11-20T11:17:33;102965.72;;;13.72;100.00
25430;BME280;13360;48.152;-1.788;2022-11-20T11:22:29;102961.13;;;13.83;100.00
25430;BME280;13360;48.152;-1.788;2022-11-20T11:24:55;102943.06;;;13.86;100.00
25430;BME280;13360;48.152;-1.788;2022-11-20T11:27:20;102911.91;;;13.79;100.00
25430;BME280;13360;48.152;-1.788;2022-11-20T11:29:46;102881.81;;;13.65;100.00
25430;BME280;13360;48.152;-1.788;2022-11-20T11:32:20;102865.66;;;13.57;100.00
25430;BME280;13360;48.152;-1.788;2022-11-20T11:35:06;102863.47;;;13.64;100.00
25430;BME280;13360;48.152;-1.788;2022-11-20T11:37:43;102778.03;;;13.34;100.00
25430;BME280;13360;48.152;-1.788;2022-11-20T11:40:11;102719.75;;;13.34;100.00
25430;BME280;13360;48.152;-1.788;2022-11-20T11:42:43;102685.63;;;13.39;100.00
25430;BME280;13360;48.152;-1.788;2022-11-20T11:45:14;102659.25;;;13.41;100.00
25430;BME280;13360;48.152;-1.788;2022-11-20T11:50:17;102576.19;;;13.30;100.00
25430;BME280;13360;48.152;-1.788;2022-11-20T11:58:06;102460.97;;;13.12;100.00
25430;BME280;13360;48.152;-1.788;2022-11-20T12:00:35;102436.50;;;13.04;100.00
25430;BME280;13360;48.152;-1.788;2022-11-20T12:03:12;102412.66;;;13.03;100.00
25430;BME280;13360;48.152;-1.788;2022-11-20T12:05:42;102399.88;;;13.02;100.00
25430;BME280;13360;48.152;-1.788;2022-11-20T12:08:17;102416.53;;;13.07;100.00
25430;BME280;13360;48.152;-1.788;2022-11-20T12:11:11;102403.22;;;13.09;100.00
25430;BME280;13360;48.152;-1.788;2022-11-20T12:13:50;102387.97;;;13.06;100.00
25430;BME280;13360;48.152;-1.788;2022-11-20T12:16:19;102396.28;;;13.11;100.00
25430;BME280;13360;48.152;-1.788;2022-11-20T12:18:49;102382.22;;;13.18;100.00
25430;BME280;13360;48.152;-1.788;2022-11-20T12:21:18;102383.03;;;13.29;100.00
25430;BME280;13360;48.152;-1.788;2022-11-20T12:24:10;102367.53;;;13.33;100.00
25430;BME280;13360;48.152;-1.788;2022-11-20T12:26:52;102324.50;;;13.25;100.00
25430;BME280;13360;48.152;-1.788;2022-11-20T12:48:17;102217.66;;;13.38;100.00
25430;BME280;13360;48.152;-1.788;2022-11-20T12:51:11;102214.63;;;13.34;100.00
25430;BME280;13360;48.152;-1.788;2022-11-20T13:05:53;102207.94;;;13.40;100.00
25430;BME280;13360;48.152;-1.788;2022-11-20T13:08:27;102180.19;;;13.40;100.00
25430;BME280;13360;48.152;-1.788;2022-11-20T13:13:39;102154.03;;;13.62;100.00
25430;BME280;13360;48.152;-1.788;2022-11-20T13:16:36;102157.03;;;13.70;100.00
25430;BME280;13360;48.152;-1.788;2022-11-20T13:19:09;102107.94;;;13.66;100.00
25430;BME280;13360;48.152;-1.788;2022-11-20T13:21:36;102071.28;;;13.64;100.00
25430;BME280;13360;48.152;-1.788;2022-11-20T13:24:06;102059.03;;;13.70;100.00
25430;BME280;13360;48.152;-1.788;2022-11-20T13:26:32;102078.19;;;13.77;100.00
25430;BME280;13360;48.152;-1.788;2022-11-20T13:29:18;102075.63;;;13.85;100.00
25430;BME280;13360;48.152;-1.788;2022-11-20T13:31:46;102048.44;;;13.82;100.00
25430;BME280;13360;48.152;-1.788;2022-11-20T13:34:25;102053.16;;;13.82;100.00
25430;BME280;13360;48.152;-1.788;2022-11-20T13:36:54;102046.22;;;13.79;100.00
25430;BME280;13360;48.152;-1.788;2022-11-20T13:39:27;102023.47;;;13.77;100.00
25430;BME280;13360;48.152;-1.788;2022-11-20T13:41:54;102001.75;;;13.84;100.00
25430;BME280;13360;48.152;-1.788;2022-11-20T13:44:34;101972.38;;;13.78;100.00
25430;BME280;13360;48.152;-1.788;2022-11-20T13:47:03;101970.97;;;13.81;100.00
25430;BME280;13360;48.152;-1.788;2022-11-20T13:49:37;101964.53;;;13.85;100.00
25430;BME280;13360;48.152;-1.788;2022-11-20T14:02:41;101943.63;;;13.59;100.00
25430;BME280;13360;48.152;-1.788;2022-11-20T14:05:21;101953.06;;;13.58;100.00
25430;BME280;13360;48.152;-1.788;2022-11-20T14:07:48;101936.75;;;13.46;100.00
25430;BME280;13360;48.152;-1.788;2022-11-20T14:10:24;101912.66;;;13.41;100.00
25430;BME280;13360;48.152;-1.788;2022-11-20T14:12:50;101887.13;;;13.39;100.00